Time;durP1;ratioP1;P1;durP2;ratioP2;P2;SDS_P1;SDS_P2;PMS_P1;PMS_P2;Temp;Humidity;BMP_temperature;BMP_pressure;BME280_temperature;BME280_humidity;BME280_pressure;Samples;Min_cycle;Max_cycle;Signal;HPM_P1;HPM_P2
2021/03/07 00:01:13;;;;;;;6.60;2.98;;;;;;;-1.14;57.45;101299.67;1735455;80;21116;-66
2021/03/07 00:03:41;;;;;;;6.85;3.12;;;;;;;-1.16;57.48;101297.56;1703051;82;21214;-66
2021/03/07 00:06:08;;;;;;;6.97;2.83;;;;;;;-1.15;57.70;101290.66;1729781;81;21168;-65
2021/03/07 00:08:39;;;;;;;8.25;3.08;;;;;;;-1.16;57.84;101288.52;1708843;82;21159;-66
2021/03/07 00:11:08;;;;;;;5.25;2.42;;;;;;;-1.14;57.89;101287.20;1729539;80;21181;-65
2021/03/07 00:13:35;;;;;;;4.75;2.08;;;;;;;-1.13;58.07;101278.56;1726604;80;21188;-67
2021/03/07 00:16:03;;;;;;;5.42;2.72;;;;;;;-1.15;58.04;101273.87;1706221;82;21136;-66
2021/03/07 00:18:32;;;;;;;5.78;2.37;;;;;;;-1.16;58.24;101275.61;1706767;80;21212;-65
2021/03/07 00:21:00;;;;;;;7.03;2.40;;;;;;;-1.16;58.29;101271.73;1739623;80;21180;-67
2021/03/07 00:23:27;;;;;;;5.58;2.80;;;;;;;-1.14;58.31;101267.39;1764205;80;21180;-66
2021/03/07 00:25:55;;;;;;;7.55;2.72;;;;;;;-1.17;58.46;101260.98;1767766;79;22461;-64
2021/03/07 00:28:23;;;;;;;8.73;3.50;;;;;;;-1.18;58.48;101260.59;1765056;80;21184;-64
2021/03/07 00:30:50;;;;;;;7.17;3.08;;;;;;;-1.13;58.54;101255.31;1735912;80;21104;-64
2021/03/07 00:33:18;;;;;;;5.10;2.80;;;;;;;-1.14;58.84;101256.21;1738716;80;21199;-66
2021/03/07 00:35:46;;;;;;;7.42;3.10;;;;;;;-1.16;58.82;101247.20;1766978;79;21161;-63
2021/03/07 00:38:13;;;;;;;6.80;3.45;;;;;;;-1.18;59.05;101246.38;1769358;79;21225;-64
2021/03/07 00:40:41;;;;;;;6.85;3.20;;;;;;;-1.20;59.27;101242.11;1768357;79;21192;-64
2021/03/07 00:43:08;;;;;;;5.92;2.47;;;;;;;-1.19;59.39;101234.78;1748780;80;21171;-68
2021/03/07 00:45:36;;;;;;;6.42;3.15;;;;;;;-1.21;59.47;101243.84;1744041;80;21223;-65
2021/03/07 00:48:05;;;;;;;6.28;2.87;;;;;;;-1.22;59.63;101238.70;1763121;80;21564;-65
2021/03/07 00:50:33;;;;;;;6.25;2.85;;;;;;;-1.22;59.68;101234.83;1738024;80;21909;-65
2021/03/07 00:53:00;;;;;;;7.47;3.33;;;;;;;-1.23;59.80;101224.08;1738463;80;21208;-65
2021/03/07 00:55:28;;;;;;;7.47;3.40;;;;;;;-1.21;59.71;101219.73;1768018;79;21152;-65
2021/03/07 00:57:55;;;;;;;7.40;3.58;;;;;;;-1.23;59.81;101209.42;1768178;79;22766;-64
2021/03/07 01:00:26;;;;;;;6.85;3.17;;;;;;;-1.21;59.80;101203.81;1770257;80;21125;-65
2021/03/07 01:02:54;;;;;;;6.65;3.15;;;;;;;-1.18;59.73;101196.02;1774473;79;21109;-65
2021/03/07 01:05:29;;;;;;;8.78;3.40;;;;;;;-1.20;59.86;101198.20;1781108;79;21188;-66
2021/03/07 01:07:56;;;;;;;7.35;3.30;;;;;;;-1.22;59.83;101192.22;1771013;79;21145;-67
2021/03/07 01:10:39;;;;;;;7.78;3.45;;;;;;;-1.22;59.86;101185.77;1769373;80;22359;-66
2021/03/07 01:13:09;;;;;;;7.50;3.40;;;;;;;-1.22;59.86;101185.77;1741922;80;21171;-74
2021/03/07 01:15:36;;;;;;;6.75;3.72;;;;;;;-1.22;59.86;101184.02;1767684;79;21203;-64
2021/03/07 01:18:06;;;;;;;6.62;2.83;;;;;;;-1.21;59.78;101176.70;1771027;79;21627;-64
2021/03/07 01:20:36;;;;;;;6.80;2.72;;;;;;;-1.18;59.80;101175.78;1772047;79;21152;-66
2021/03/07 01:23:03;;;;;;;7.05;3.22;;;;;;;-1.17;59.75;101161.55;1769749;80;21376;-63
2021/03/07 01:25:31;;;;;;;6.87;2.55;;;;;;;-1.16;59.64;101159.80;1747751;79;21164;-66
2021/03/07 01:28:00;;;;;;;5.72;2.67;;;;;;;-1.17;59.57;101149.08;1759307;80;21141;-64
2021/03/07 01:30:28;;;;;;;7.95;3.35;;;;;;;-1.18;59.56;101151.23;1756196;79;21204;-75
2021/03/07 01:32:57;;;;;;;6.90;3.42;;;;;;;-1.20;59.64;101147.39;1767512;80;21204;-68
2021/03/07 01:35:24;;;;;;;6.58;2.98;;;;;;;-1.22;59.68;101136.70;1735631;80;21495;-64
2021/03/07 01:37:53;;;;;;;5.72;2.65;;;;;;;-1.20;59.73;101146.55;1767423;79;21201;-64
2021/03/07 01:40:28;;;;;;;10.53;3.77;;;;;;;-1.16;59.53;101138.73;1753767;80;21117;-64
2021/03/07 01:42:59;;;;;;;5.78;2.52;;;;;;;-1.17;59.44;101135.72;1745606;79;21492;-71
2021/03/07 01:45:29;;;;;;;7.47;2.95;;;;;;;-1.17;59.48;101133.59;1756315;80;21177;-71
2021/03/07 01:47:59;;;;;;;7.33;2.72;;;;;;;-1.18;59.36;101126.29;1744595;80;21211;-65
2021/03/07 01:50:30;;;;;;;6.37;3.40;;;;;;;-1.22;59.39;101121.20;1751917;80;21177;-67
2021/03/07 01:52:57;;;;;;;4.70;2.42;;;;;;;-1.23;59.46;101132.41;1761858;79;21655;-66
2021/03/07 01:55:28;;;;;;;6.25;3.02;;;;;;;-1.25;59.46;101119.97;1761505;79;21140;-64
2021/03/07 01:58:01;;;;;;;6.15;2.62;;;;;;;-1.29;59.53;101119.18;1762107;80;21199;-65
2021/03/07 02:00:28;;;;;;;6.60;3.12;;;;;;;-1.29;59.41;101117.89;1741048;79;22302;-64
2021/03/07 02:02:57;;;;;;;6.37;3.47;;;;;;;-1.27;59.35;101117.41;1769956;79;21136;-65
2021/03/07 02:05:25;;;;;;;8.40;3.00;;;;;;;-1.24;59.36;101120.39;1741379;80;21217;-65
2021/03/07 02:07:53;;;;;;;9.03;3.27;;;;;;;-1.22;59.29;101112.17;1771025;79;21116;-65
2021/03/07 02:10:25;;;;;;;6.17;2.83;;;;;;;-1.19;59.25;101110.37;1743585;80;21161;-65
2021/03/07 02:12:55;;;;;;;8.10;3.00;;;;;;;-1.16;59.23;101110.73;1761250;80;21968;-65
2021/03/07 02:15:24;;;;;;;5.05;2.50;;;;;;;-1.14;59.10;101098.66;1760779;79;21122;-65
2021/03/07 02:17:53;;;;;;;5.47;2.50;;;;;;;-1.14;59.03;101097.38;1694028;80;21611;-70
2021/03/07 02:20:21;;;;;;;7.00;2.67;;;;;;;-1.14;59.03;101097.38;1740452;80;21887;-67
2021/03/07 02:23:08;;;;;;;7.58;2.85;;;;;;;-1.13;58.93;101094.77;1742545;79;21148;-66
2021/03/07 02:25:36;;;;;;;6.05;3.08;;;;;;;-1.14;58.88;101096.08;1756912;79;21308;-66
2021/03/07 02:28:06;;;;;;;6.37;2.60;;;;;;;-1.16;58.87;101085.78;1758923;80;21495;-67
2021/03/07 02:30:33;;;;;;;5.78;2.87;;;;;;;-1.18;58.89;101075.92;1764302;79;21569;-65
2021/03/07 02:33:23;;;;;;;7.47;2.87;;;;;;;-1.18;58.76;101074.64;1763543;79;21552;-63
2021/03/07 02:36:01;;;;;;;6.62;2.50;;;;;;;-1.16;58.75;101071.99;1764845;80;21149;-69
2021/03/07 02:38:28;;;;;;;6.67;2.63;;;;;;;-1.18;58.61;101072.47;1749084;80;21199;-66
2021/03/07 02:40:56;;;;;;;6.83;2.20;;;;;;;-1.20;58.61;101076.38;1726789;82;21209;-67
2021/03/07 02:43:23;;;;;;;5.80;2.35;;;;;;;-1.19;58.52;101068.21;1766413;79;21119;-66
2021/03/07 02:45:51;;;;;;;7.60;2.62;;;;;;;-1.17;58.51;101062.56;1758884;80;21137;-65
2021/03/07 02:48:22;;;;;;;6.05;2.47;;;;;;;-1.15;58.35;101064.22;1737427;79;21114;-65
2021/03/07 02:50:50;;;;;;;7.00;2.90;;;;;;;-1.16;58.33;101052.20;1741446;80;22175;-65
2021/03/07 02:53:21;;;;;;;6.90;2.77;;;;;;;-1.15;58.28;101051.75;1763257;80;21188;-69
2021/03/07 02:55:59;;;;;;;7.92;2.52;;;;;;;-1.17;58.31;101044.48;1763269;79;21192;-66
2021/03/07 02:58:26;;;;;;;7.60;2.52;;;;;;;-1.15;58.29;101042.27;1705113;82;21181;-65
2021/03/07 03:01:00;;;;;;;6.33;3.10;;;;;;;-1.14;58.09;101029.77;1701650;82;21222;-64
2021/03/07 03:03:31;;;;;;;5.53;2.67;;;;;;;-1.17;58.16;101029.83;1699027;84;21233;-64
2021/03/07 03:05:59;;;;;;;6.95;2.58;;;;;;;-1.15;58.23;101024.64;1742449;80;21200;-64
2021/03/07 03:08:27;;;;;;;7.45;2.98;;;;;;;-1.11;58.11;101024.97;1764172;80;21192;-68
2021/03/07 03:10:55;;;;;;;5.03;2.12;;;;;;;-1.10;58.05;101021.97;1720227;79;21232;-65
2021/03/07 03:13:24;;;;;;;7.42;2.95;;;;;;;-1.12;58.01;101016.83;1753280;79;21651;-64
2021/03/07 03:15:54;;;;;;;6.28;2.77;;;;;;;-1.15;57.93;101012.56;1741568;80;21216;-66
2021/03/07 03:18:30;;;;;;;7.72;2.75;;;;;;;-1.16;57.96;101009.59;1758725;79;21140;-64
2021/03/07 03:21:04;;;;;;;7.45;2.60;;;;;;;-1.15;57.83;101004.81;1756613;79;21224;-66
2021/03/07 03:23:32;;;;;;;6.42;2.90;;;;;;;-1.18;57.89;100999.74;1763826;79;21197;-64
2021/03/07 03:25:59;;;;;;;8.70;3.40;;;;;;;-1.17;57.95;100991.55;1744706;80;21101;-66
2021/03/07 03:28:27;;;;;;;7.75;3.40;;;;;;;-1.16;57.93;100985.06;1763205;79;21495;-66
2021/03/07 03:30:56;;;;;;;7.15;2.95;;;;;;;-1.13;57.80;100982.83;1762784;80;21181;-65
2021/03/07 03:33:27;;;;;;;8.15;3.30;;;;;;;-1.13;57.75;100972.08;1726114;81;21181;-65
2021/03/07 03:35:54;;;;;;;7.95;3.00;;;;;;;-1.12;57.65;100965.17;1757278;80;21136;-69
2021/03/07 03:38:28;;;;;;;4.97;2.22;;;;;;;-1.14;57.62;100964.37;1741705;80;21169;-67
2021/03/07 03:40:57;;;;;;;7.20;2.77;;;;;;;-1.12;57.50;100953.55;1728538;80;21592;-65
2021/03/07 03:43:24;;;;;;;8.15;3.10;;;;;;;-1.09;57.30;100945.74;1763118;79;21105;-65
2021/03/07 03:45:55;;;;;;;8.80;3.20;;;;;;;-1.09;57.17;100939.28;1737491;80;21133;-65
2021/03/07 03:48:25;;;;;;;6.70;2.90;;;;;;;-1.12;57.14;100934.19;1734145;80;21085;-68
2021/03/07 03:50:52;;;;;;;7.10;2.30;;;;;;;-1.12;57.14;100923.40;1746275;79;21232;-65
2021/03/07 03:53:19;;;;;;;6.87;2.70;;;;;;;-1.13;57.05;100916.56;1735279;80;21231;-74
2021/03/07 03:55:49;;;;;;;6.30;2.70;;;;;;;-1.13;56.98;100912.69;1736997;80;21165;-66
2021/03/07 03:58:22;;;;;;;8.85;3.35;;;;;;;-1.14;57.05;100915.30;1761986;79;21172;-75
2021/03/07 04:00:51;;;;;;;8.73;3.05;;;;;;;-1.16;57.08;100903.70;1741773;80;21172;-68
2021/03/07 04:03:19;;;;;;;6.97;2.60;;;;;;;-1.14;56.98;100896.77;1765574;79;21209;-64
2021/03/07 04:05:48;;;;;;;10.58;2.87;;;;;;;-1.14;56.94;100895.48;1743408;80;22216;-68
2021/03/07 04:08:18;;;;;;;7.15;2.95;;;;;;;-1.16;56.97;100898.55;1762225;79;21216;-66
2021/03/07 04:10:46;;;;;;;9.35;3.30;;;;;;;-1.16;57.00;100898.97;1764835;80;21137;-65
2021/03/07 04:13:17;;;;;;;7.15;3.00;;;;;;;-1.16;57.04;100886.92;1755089;79;21204;-73
2021/03/07 04:15:45;;;;;;;6.62;2.70;;;;;;;-1.13;56.94;100886.86;1738235;80;21161;-66
2021/03/07 04:18:18;;;;;;;10.82;2.85;;;;;;;-1.12;56.95;100883.82;1770009;80;21976;-63
2021/03/07 04:20:45;;;;;;;8.33;3.60;;;;;;;-1.13;56.99;100875.23;1712956;82;21215;-63
2021/03/07 04:23:13;;;;;;;6.80;3.15;;;;;;;-1.09;56.81;100862.22;1763040;79;21128;-63
2021/03/07 04:25:40;;;;;;;5.12;2.60;;;;;;;-1.08;56.80;100857.02;1738377;80;21169;-69
2021/03/07 04:28:08;;;;;;;6.80;2.83;;;;;;;-1.11;56.77;100857.09;1764633;79;21149;-65
2021/03/07 04:30:36;;;;;;;9.40;3.40;;;;;;;-1.10;56.82;100862.67;1766061;79;22084;-64
2021/03/07 04:33:05;;;;;;;7.62;3.12;;;;;;;-1.12;56.83;100845.08;1759682;79;21142;-64
2021/03/07 04:35:32;;;;;;;6.65;3.17;;;;;;;-1.10;56.84;100847.17;1740425;80;21132;-68
2021/03/07 04:38:03;;;;;;;7.00;3.10;;;;;;;-1.10;56.80;100834.72;1756976;79;21530;-69
2021/03/07 04:40:32;;;;;;;8.08;3.27;;;;;;;-1.14;56.89;100827.48;1767238;79;21113;-65
2021/03/07 04:42:59;;;;;;;10.25;3.85;;;;;;;-1.13;56.98;100824.88;1763769;79;21280;-65
2021/03/07 04:45:26;;;;;;;7.75;3.02;;;;;;;-1.12;56.98;100819.25;1757262;79;21188;-70
2021/03/07 04:47:54;;;;;;;9.13;3.10;;;;;;;-1.12;57.03;100824.42;1758522;79;21677;-69
2021/03/07 04:50:21;;;;;;;6.78;3.27;;;;;;;-1.18;57.15;100812.52;1754921;80;21173;-72
2021/03/07 04:52:49;;;;;;;7.40;3.08;;;;;;;-1.18;57.24;100811.23;1763613;79;21197;-67
2021/03/07 04:55:16;;;;;;;6.37;3.15;;;;;;;-1.12;57.25;100807.63;1738366;80;21923;-67
2021/03/07 04:57:43;;;;;;;7.15;3.52;;;;;;;-1.09;57.22;100814.02;1756834;79;21176;-69
2021/03/07 05:00:14;;;;;;;9.38;4.35;;;;;;;-1.06;57.28;100810.50;1760584;79;21738;-67
2021/03/07 05:02:42;;;;;;;10.58;3.67;;;;;;;-1.03;57.22;100813.01;1755133;79;21098;-66
2021/03/07 05:05:11;;;;;;;5.28;2.75;;;;;;;-1.01;57.23;100812.09;1767909;79;21158;-65
2021/03/07 05:07:38;;;;;;;8.73;4.10;;;;;;;-1.00;57.07;100808.61;1767732;79;22486;-65
2021/03/07 05:10:07;;;;;;;10.60;3.77;;;;;;;-1.00;57.13;100815.52;1767444;79;21136;-68
2021/03/07 05:12:34;;;;;;;9.78;4.05;;;;;;;-1.00;57.21;100807.31;1734127;80;21235;-68
2021/03/07 05:15:07;;;;;;;5.80;3.00;;;;;;;-0.95;57.15;100800.75;1742839;80;21065;-67
2021/03/07 05:17:34;;;;;;;8.90;4.25;;;;;;;-0.98;57.24;100808.57;1753809;79;21141;-67
2021/03/07 05:20:04;;;;;;;9.25;3.55;;;;;;;-0.99;57.28;100812.06;1754564;79;21232;-73
2021/03/07 05:22:33;;;;;;;10.45;4.50;;;;;;;-1.03;57.37;100811.27;1741493;80;21194;-66
2021/03/07 05:25:01;;;;;;;10.05;4.03;;;;;;;-1.06;57.52;100813.08;1760875;79;21567;-70
2021/03/07 05:27:28;;;;;;;10.68;4.45;;;;;;;-1.05;57.66;100804.45;1767515;79;21187;-66
2021/03/07 05:29:55;;;;;;;9.40;5.17;;;;;;;-1.05;57.66;100814.78;1735503;80;22598;-67
2021/03/07 05:32:25;;;;;;;10.82;5.42;;;;;;;-1.07;57.74;100800.61;1766128;79;21349;-72
2021/03/07 05:34:53;;;;;;;15.13;5.72;;;;;;;-1.04;57.99;100797.96;1739812;79;21683;-66
2021/03/07 05:37:21;;;;;;;10.40;5.12;;;;;;;-1.01;58.24;100790.56;1745079;80;22334;-68
2021/03/07 05:39:48;;;;;;;11.15;5.30;;;;;;;-0.98;58.04;100790.48;1761923;79;21648;-66
2021/03/07 05:42:16;;;;;;;7.78;4.60;;;;;;;-0.97;58.16;100789.16;1765946;79;21484;-66
2021/03/07 05:44:43;;;;;;;9.98;5.20;;;;;;;-0.93;58.15;100788.63;1741639;80;21157;-67
2021/03/07 05:47:11;;;;;;;9.95;4.72;;;;;;;-0.86;58.06;100800.95;1745407;79;21743;-63
2021/03/07 05:49:40;;;;;;;7.70;4.50;;;;;;;-0.87;57.96;100798.81;1776495;79;21387;-66
2021/03/07 05:52:09;;;;;;;15.08;6.30;;;;;;;-0.84;58.08;100788.83;1761021;80;21200;-68
2021/03/07 05:54:37;;;;;;;9.50;5.05;;;;;;;-0.78;57.95;100782.22;1757227;79;21173;-66
2021/03/07 05:57:06;;;;;;;7.80;4.12;;;;;;;-0.73;58.04;100781.65;1770108;79;21214;-66
2021/03/07 05:59:36;;;;;;;9.18;5.35;;;;;;;-0.67;57.77;100772.45;1758599;79;21161;-67
2021/03/07 06:02:03;;;;;;;10.90;5.50;;;;;;;-0.62;57.62;100774.46;1764200;79;21986;-72
2021/03/07 06:04:31;;;;;;;15.50;5.17;;;;;;;-0.60;57.54;100759.75;1771567;79;21172;-67
2021/03/07 06:06:59;;;;;;;14.40;5.92;;;;;;;-0.60;57.67;100761.05;1763478;79;21576;-69
2021/03/07 06:09:27;;;;;;;10.65;4.83;;;;;;;-0.57;57.83;100751.92;1764945;79;21210;-70
2021/03/07 06:11:57;;;;;;;11.80;6.47;;;;;;;-0.53;57.59;100745.37;1763499;79;21576;-67
2021/03/07 06:14:30;;;;;;;10.28;6.12;;;;;;;-0.48;57.43;100753.84;1746030;79;21168;-76
2021/03/07 06:17:12;;;;;;;8.60;4.37;;;;;;;-0.44;57.40;100748.55;1733982;79;21132;-68
2021/03/07 06:20:00;;;;;;;16.97;6.25;;;;;;;-0.42;57.31;100736.84;1743198;80;21213;-66
2021/03/07 06:22:28;;;;;;;13.50;7.25;;;;;;;-0.39;57.17;100739.34;1770377;79;21185;-69
2021/03/07 06:24:57;;;;;;;11.40;6.37;;;;;;;-0.38;57.09;100733.30;1771111;79;21172;-68
2021/03/07 06:27:24;;;;;;;15.98;6.87;;;;;;;-0.36;57.17;100722.45;1752427;79;21629;-70
2021/03/07 06:30:09;;;;;;;15.23;5.83;;;;;;;-0.32;57.13;100708.98;1778132;79;21188;-70
2021/03/07 06:32:41;;;;;;;11.95;5.67;;;;;;;-0.31;57.06;100727.05;1738613;80;21514;-67
2021/03/07 06:35:12;;;;;;;8.50;4.55;;;;;;;-0.28;57.20;100719.20;1769178;79;21385;-66
2021/03/07 06:38:08;;;;;;;10.93;5.33;;;;;;;-0.24;56.98;100714.33;1749131;79;21211;-67
2021/03/07 06:40:42;;;;;;;15.27;6.20;;;;;;;-0.19;56.84;100718.91;1768940;79;21445;-70
2021/03/07 06:43:25;;;;;;;9.60;5.22;;;;;;;-0.12;56.73;100704.52;1733128;79;22302;-74
2021/03/07 06:48:50;;;;;;;13.03;6.28;;;;;;;0.04;56.52;100694.55;1821092;76;22792;-60
2021/03/07 06:51:27;;;;;;;16.00;6.25;;;;;;;0.07;56.46;100704.78;1795304;78;21595;-60
2021/03/07 06:53:55;;;;;;;13.08;6.22;;;;;;;0.14;56.24;100692.91;1797791;77;21182;-57
2021/03/07 06:56:42;;;;;;;14.75;6.62;;;;;;;0.22;56.02;100695.69;1748814;79;21214;-60
2021/03/07 06:59:18;;;;;;;10.20;6.00;;;;;;;0.27;55.67;100692.08;1781438;79;21140;-58
2021/03/07 07:01:49;;;;;;;8.98;6.47;;;;;;;0.34;55.60;100699.20;1775958;79;21195;-58
2021/03/07 07:04:17;;;;;;;10.88;5.15;;;;;;;0.41;55.33;100690.32;1786856;79;21595;-58
2021/03/07 07:07:09;;;;;;;13.32;5.83;;;;;;;0.48;55.32;100679.31;1766956;79;21682;-59
2021/03/07 07:09:40;;;;;;;11.75;6.08;;;;;;;0.56;55.00;100668.25;1795800;78;21215;-60
2021/03/07 07:12:22;;;;;;;9.88;5.60;;;;;;;0.66;54.92;100676.56;1787950;79;21615;-60
2021/03/07 07:14:50;;;;;;;13.10;6.05;;;;;;;0.74;54.38;100666.33;1786535;79;21152;-59
2021/03/07 07:17:19;;;;;;;10.05;6.40;;;;;;;0.80;54.33;100660.53;1770565;79;21179;-59
2021/03/07 07:19:47;;;;;;;9.38;5.72;;;;;;;0.86;54.03;100656.44;1792660;79;21339;-58
2021/03/07 07:22:16;;;;;;;12.95;5.75;;;;;;;0.95;53.67;100650.92;1794869;77;22279;-59
2021/03/07 07:24:46;;;;;;;8.58;5.60;;;;;;;1.01;53.32;100649.84;1793801;77;21598;-59
2021/03/07 07:27:14;;;;;;;9.95;5.47;;;;;;;1.13;53.24;100641.64;1786867;77;21350;-59
2021/03/07 07:29:45;;;;;;;12.18;5.78;;;;;;;1.18;52.76;100647.50;1794748;79;21187;-59
2021/03/07 07:32:34;;;;;;;13.13;6.12;;;;;;;1.21;52.90;100626.66;1772459;77;21910;-59
2021/03/07 07:35:09;;;;;;;11.90;5.87;;;;;;;1.28;52.92;100627.27;1753049;79;21174;-57
2021/03/07 07:37:55;;;;;;;9.60;5.58;;;;;;;1.39;52.47;100632.88;1794669;77;21439;-59
2021/03/07 07:40:40;;;;;;;10.68;6.17;;;;;;;1.44;52.39;100634.00;1796318;78;21116;-59
2021/03/07 07:43:07;;;;;;;9.38;5.80;;;;;;;1.47;52.11;100609.25;1775127;79;21128;-59
2021/03/07 07:45:35;;;;;;;10.18;5.37;;;;;;;1.50;52.26;100611.73;1801803;79;21234;-60
2021/03/07 07:48:04;;;;;;;8.80;5.53;;;;;;;1.50;52.09;100605.25;1803806;77;21210;-58
2021/03/07 07:50:34;;;;;;;11.38;6.03;;;;;;;1.55;52.14;100598.14;1808604;78;21484;-58
2021/03/07 07:53:17;;;;;;;12.73;6.45;;;;;;;1.61;52.42;100599.17;1810028;78;21122;-59
2021/03/07 07:55:50;;;;;;;11.75;6.72;;;;;;;1.77;52.24;100605.08;1816538;78;21143;-60
2021/03/07 07:58:43;;;;;;;13.38;6.50;;;;;;;1.88;51.59;100592.49;1788962;79;21200;-58
2021/03/07 08:01:13;;;;;;;10.60;5.58;;;;;;;1.97;51.20;100573.13;1738759;81;21221;-57
2021/03/07 08:03:45;;;;;;;15.28;5.67;;;;;;;2.01;51.14;100591.55;1793858;79;21163;-59
2021/03/07 08:06:35;;;;;;;10.08;5.55;;;;;;;2.04;51.09;100618.22;1750302;80;21158;-58
2021/03/07 08:09:42;;;;;;;10.60;5.95;;;;;;;2.02;51.11;100587.59;1751679;81;21187;-58
2021/03/07 08:12:44;;;;;;;9.78;5.80;;;;;;;2.07;51.45;100565.35;1785795;79;22741;-58
2021/03/07 08:15:31;;;;;;;10.98;5.80;;;;;;;2.17;51.09;100568.38;1728760;81;21487;-60
2021/03/07 08:18:03;;;;;;;10.05;6.05;;;;;;;2.20;50.93;100552.67;1743676;80;21202;-59
2021/03/07 08:20:44;;;;;;;11.95;6.70;;;;;;;2.25;50.98;100562.87;1793121;79;21176;-60
2021/03/07 08:23:22;;;;;;;16.12;6.20;;;;;;;2.29;51.09;100556.66;1791573;78;21163;-56
2021/03/07 08:25:55;;;;;;;12.15;6.20;;;;;;;2.39;50.98;100535.87;1726847;81;21213;-57
2021/03/07 08:28:33;;;;;;;15.13;5.15;;;;;;;2.46;50.65;100559.83;1793550;78;21543;-57
2021/03/07 08:31:18;;;;;;;;;;;;;;;2.46;50.54;100542.48;1752541;80;21723;-57
2021/03/07 08:33:45;;;;;;;11.05;5.65;;;;;;;2.46;50.52;100545.54;1754582;80;20233;-58
2021/03/07 08:36:23;;;;;;;12.28;6.75;;;;;;;2.35;50.73;100549.42;1771081;80;21216;-57
2021/03/07 08:50:05;;;;;;;11.00;6.58;;;;;;;3.71;48.25;100511.98;1806425;77;22456;-67
2021/03/07 08:52:38;;;;;;;10.55;5.83;;;;;;;3.61;48.12;100515.96;1756700;80;21657;-71
2021/03/07 08:55:08;;;;;;;9.93;5.90;;;;;;;3.61;48.12;100515.96;1792477;78;21187;-68
2021/03/07 08:57:46;;;;;;;9.88;5.22;;;;;;;3.43;48.44;100517.25;1827105;76;22749;-71
2021/03/07 09:00:16;;;;;;;13.03;5.35;;;;;;;3.23;48.90;100517.34;1708684;82;22767;-72
2021/03/07 09:02:45;;;;;;;10.68;6.00;;;;;;;3.11;49.24;100515.72;1744295;79;21227;-70
2021/03/07 09:05:31;;;;;;;9.83;5.75;;;;;;;3.03;49.64;100513.09;1769350;79;21061;-67
2021/03/07 09:08:02;;;;;;;10.88;5.40;;;;;;;2.96;49.76;100512.55;1777192;78;21223;-70
2021/03/07 09:10:39;;;;;;;11.08;5.45;;;;;;;2.93;50.05;100504.41;1774351;78;21203;-69
2021/03/07 09:13:13;;;;;;;8.65;5.08;;;;;;;2.92;50.04;100500.12;1780821;79;21168;-67
2021/03/07 09:16:00;;;;;;;11.00;5.17;;;;;;;2.91;50.36;100499.75;1779568;79;21277;-73
2021/03/07 09:18:32;;;;;;;9.60;4.70;;;;;;;2.96;50.22;100511.23;1780056;79;21049;-67
2021/03/07 09:21:08;;;;;;;11.38;5.53;;;;;;;2.96;50.11;100503.44;1781211;79;21088;-67
2021/03/07 09:23:39;;;;;;;13.98;5.47;;;;;;;2.99;49.85;100503.27;1777886;78;21155;-69
2021/03/07 09:26:10;;;;;;;15.85;4.85;;;;;;;3.01;49.61;100500.17;1785951;79;21208;-67
2021/03/07 09:28:44;;;;;;;10.40;4.00;;;;;;;3.03;49.56;100495.73;1788091;79;21943;-75
2021/03/07 09:31:35;;;;;;;7.00;3.67;;;;;;;3.03;49.03;100484.03;1872624;75;22777;-64
2021/03/07 09:34:04;;;;;;;8.45;4.00;;;;;;;3.03;49.03;100484.03;1844988;76;21210;-58
2021/03/07 09:36:38;;;;;;;9.23;4.92;;;;;;;3.04;49.25;100483.10;1817602;76;21208;-59
2021/03/07 09:39:07;;;;;;;9.73;4.58;;;;;;;3.08;49.16;100479.92;1846874;76;21174;-58
2021/03/07 09:41:38;;;;;;;7.80;4.42;;;;;;;3.09;49.33;100477.26;1778433;78;21621;-60
2021/03/07 09:44:17;;;;;;;9.28;4.55;;;;;;;3.11;49.13;100466.75;1812062;78;21575;-59
2021/03/07 09:46:47;;;;;;;8.95;4.17;;;;;;;3.11;49.45;100465.02;1813527;78;21056;-61
2021/03/07 09:49:22;;;;;;;7.33;3.58;;;;;;;3.13;49.19;100464.48;1783433;78;21210;-59
2021/03/07 09:51:52;;;;;;;9.05;3.80;;;;;;;3.12;49.23;100473.19;1782960;78;21131;-59
2021/03/07 09:54:20;;;;;;;8.48;4.22;;;;;;;3.11;49.48;100478.45;1781008;78;21504;-60
2021/03/07 09:56:48;;;;;;;8.65;4.37;;;;;;;3.10;49.04;100510.12;1790883;78;21194;-59
2021/03/07 09:59:17;;;;;;;8.43;3.72;;;;;;;3.08;49.17;100466.46;1756085;79;21166;-66
2021/03/07 10:02:03;;;;;;;8.25;4.25;;;;;;;3.08;49.30;100459.96;1809912;78;22095;-67
2021/03/07 10:04:35;;;;;;;8.48;4.15;;;;;;;3.09;49.76;100457.76;1782693;78;21568;-66
2021/03/07 10:07:20;;;;;;;9.00;4.70;;;;;;;3.13;49.87;100459.28;1777792;79;21164;-67
2021/03/07 10:10:10;;;;;;;6.65;3.60;;;;;;;3.13;49.94;100455.38;1813356;77;21155;-65
2021/03/07 10:12:59;;;;;;;9.28;4.72;;;;;;;3.08;49.81;100467.76;1794428;78;21230;-68
2021/03/07 10:15:33;;;;;;;9.40;3.58;;;;;;;3.04;50.32;100464.91;1763048;79;21187;-69
2021/03/07 10:18:08;;;;;;;10.13;4.15;;;;;;;3.02;50.51;100446.41;1792163;79;21163;-67
2021/03/07 10:20:49;;;;;;;9.15;3.95;;;;;;;3.00;50.46;100447.78;1788908;78;21147;-69
2021/03/07 10:23:17;;;;;;;8.15;4.22;;;;;;;3.02;50.59;100443.81;1788569;78;21167;-67
2021/03/07 10:25:48;;;;;;;8.78;4.83;;;;;;;3.01;50.71;100446.02;1786535;78;21547;-66
2021/03/07 10:28:23;;;;;;;10.20;4.03;;;;;;;3.03;50.56;100442.44;1779075;78;21617;-65
2021/03/07 10:30:52;;;;;;;6.87;4.05;;;;;;;3.02;50.41;100445.11;1782180;78;21167;-65
2021/03/07 10:33:31;;;;;;;8.20;3.90;;;;;;;3.02;50.10;100445.95;1797836;78;21211;-63
2021/03/07 10:36:10;;;;;;;9.73;4.37;;;;;;;3.02;49.91;100443.34;1752763;79;21780;-77
2021/03/07 10:38:43;;;;;;;8.55;4.22;;;;;;;3.02;49.76;100432.95;1778084;78;21188;-67
2021/03/07 10:44:08;;;;;;;7.47;3.83;;;;;;;3.02;50.07;100421.25;1834481;76;22807;-66
2021/03/07 10:46:44;;;;;;;7.37;3.83;;;;;;;3.01;50.12;100439.08;1782115;78;21212;-64
2021/03/07 10:49:14;;;;;;;11.10;4.35;;;;;;;3.05;50.00;100439.77;1804006;77;21624;-67
2021/03/07 10:51:43;;;;;;;8.35;3.33;;;;;;;3.05;49.73;100428.91;1808466;77;21164;-64
2021/03/07 10:54:10;;;;;;;7.20;3.75;;;;;;;3.07;49.56;100412.77;1775814;78;21246;-64
2021/03/07 10:56:41;;;;;;;6.78;3.27;;;;;;;3.06;49.79;100432.34;1707331;82;21524;-65
2021/03/07 10:59:10;;;;;;;9.80;4.12;;;;;;;3.07;49.98;100404.97;1728929;80;21200;-65
2021/03/07 11:01:40;;;;;;;7.03;3.12;;;;;;;3.11;49.58;100422.55;1771006;78;21191;-66
2021/03/07 11:04:09;;;;;;;7.22;3.58;;;;;;;3.11;49.50;100397.42;1773843;78;21159;-63
2021/03/07 11:06:37;;;;;;;7.75;4.12;;;;;;;3.11;49.62;100388.76;1707187;81;21214;-65
2021/03/07 11:09:06;;;;;;;6.15;2.83;;;;;;;3.10;49.52;100383.20;1802705;78;21175;-68
2021/03/07 11:11:34;;;;;;;7.87;3.15;;;;;;;3.13;49.38;100373.95;1735549;80;21151;-68
2021/03/07 11:14:03;;;;;;;15.00;3.95;;;;;;;3.13;49.57;100390.38;1803861;78;21234;-63
2021/03/07 11:16:30;;;;;;;7.58;3.30;;;;;;;3.15;49.46;100379.91;1738485;81;21943;-69
2021/03/07 11:19:00;;;;;;;13.48;3.83;;;;;;;3.16;49.54;100375.07;1808233;77;21478;-69
2021/03/07 11:21:27;;;;;;;8.28;3.70;;;;;;;3.18;49.30;100381.06;1809739;78;21089;-66
2021/03/07 11:23:54;;;;;;;8.38;3.42;;;;;;;3.15;49.41;100386.41;1779194;78;21136;-68
2021/03/07 11:26:22;;;;;;;6.45;3.47;;;;;;;3.15;49.63;100363.84;1767359;78;21210;-67
2021/03/07 11:28:49;;;;;;;6.72;3.33;;;;;;;3.18;49.82;100354.20;1793626;78;21199;-65
2021/03/07 11:31:16;;;;;;;6.58;3.15;;;;;;;3.20;49.69;100362.78;1804760;78;21458;-68
2021/03/07 11:33:44;;;;;;;9.08;3.98;;;;;;;3.22;49.38;100360.48;1774365;78;21167;-65
2021/03/07 11:36:11;;;;;;;6.08;2.98;;;;;;;3.20;49.52;100356.28;1762958;79;21136;-65
2021/03/07 11:38:40;;;;;;;6.97;4.00;;;;;;;3.16;49.47;100355.57;1800766;78;22050;-66
2021/03/07 11:41:08;;;;;;;6.10;3.30;;;;;;;3.16;49.69;100365.97;1801930;78;22243;-66
2021/03/07 11:43:35;;;;;;;6.72;3.65;;;;;;;3.15;49.65;100355.20;1708121;81;21247;-66
2021/03/07 11:46:03;;;;;;;6.47;3.72;;;;;;;3.15;49.80;100354.73;1772950;78;21630;-66
2021/03/07 11:48:30;;;;;;;7.55;3.37;;;;;;;3.13;49.66;100344.05;1810038;77;21187;-68
2021/03/07 11:50:59;;;;;;;6.55;3.40;;;;;;;3.11;49.78;100357.12;1742752;81;22332;-68
2021/03/07 11:53:28;;;;;;;6.80;3.27;;;;;;;3.09;49.97;100338.16;1802903;78;21160;-64
2021/03/07 11:55:55;;;;;;;8.25;3.10;;;;;;;3.09;50.09;100338.16;1799727;78;21383;-63
2021/03/07 11:58:23;;;;;;;11.43;3.30;;;;;;;3.13;50.18;100348.78;1773277;78;21233;-62
2021/03/07 12:00:50;;;;;;;9.60;3.72;;;;;;;3.13;50.14;100316.28;1771000;79;21202;-67
2021/03/07 12:03:17;;;;;;;7.35;3.47;;;;;;;3.18;50.23;100303.05;1778218;78;21462;-67